sensor_id;sensor_type;location;lat;lon;timestamp;temperature;humidity
13245;DHT22;6689;53.400;12.486;2022-09-24T00:01:27;13.20;99.90
13245;DHT22;6689;53.400;12.486;2022-09-24T00:03:57;13.10;99.90
13245;DHT22;6689;53.400;12.486;2022-09-24T00:06:26;13.10;99.90
13245;DHT22;6689;53.400;12.486;2022-09-24T00:08:55;13.10;99.90
13245;DHT22;6689;53.400;12.486;2022-09-24T00:11:26;13.10;99.90
13245;DHT22;6689;53.400;12.486;2022-09-24T00:13:56;13.10;99.90
13245;DHT22;6689;53.400;12.486;2022-09-24T00:16:25;13.10;99.90
13245;DHT22;6689;53.400;12.486;2022-09-24T00:19:00;13.00;99.90
13245;DHT22;6689;53.400;12.486;2022-09-24T00:21:30;13.00;99.90
13245;DHT22;6689;53.400;12.486;2022-09-24T00:23:59;13.00;99.90
13245;DHT22;6689;53.400;12.486;2022-09-24T00:26:28;13.00;99.90
13245;DHT22;6689;53.400;12.486;2022-09-24T00:29:15;13.00;99.90
13245;DHT22;6689;53.400;12.486;2022-09-24T00:31:43;13.00;99.90
13245;DHT22;6689;53.400;12.486;2022-09-24T00:34:12;13.00;99.90
13245;DHT22;6689;53.400;12.486;2022-09-24T00:36:39;13.00;99.90
13245;DHT22;6689;53.400;12.486;2022-09-24T00:39:08;13.00;99.90
13245;DHT22;6689;53.400;12.486;2022-09-24T00:41:36;13.00;99.90
13245;DHT22;6689;53.400;12.486;2022-09-24T00:47:04;13.00;99.90
13245;DHT22;6689;53.400;12.486;2022-09-24T00:49:36;13.00;99.90
13245;DHT22;6689;53.400;12.486;2022-09-24T00:52:05;13.00;99.90
13245;DHT22;6689;53.400;12.486;2022-09-24T00:54:33;13.00;99.90
13245;DHT22;6689;53.400;12.486;2022-09-24T00:57:03;12.90;99.90
13245;DHT22;6689;53.400;12.486;2022-09-24T00:59:30;12.90;99.90
13245;DHT22;6689;53.400;12.486;2022-09-24T01:01:58;12.90;99.90
13245;DHT22;6689;53.400;12.486;2022-09-24T01:04:26;12.90;99.90
13245;DHT22;6689;53.400;12.486;2022-09-24T01:06:57;12.90;99.90
13245;DHT22;6689;53.400;12.486;2022-09-24T01:09:25;12.90;99.90
13245;DHT22;6689;53.400;12.486;2022-09-24T01:12:00;12.90;99.90
13245;DHT22;6689;53.400;12.486;2022-09-24T01:14:51;12.90;99.90
13245;DHT22;6689;53.400;12.486;2022-09-24T01:17:29;12.80;99.90
13245;DHT22;6689;53.400;12.486;2022-09-24T01:20:21;12.80;99.90
13245;DHT22;6689;53.400;12.486;2022-09-24T01:23:08;12.80;99.90
13245;DHT22;6689;53.400;12.486;2022-09-24T01:25:41;12.80;99.90
13245;DHT22;6689;53.400;12.486;2022-09-24T01:28:24;12.80;99.90
13245;DHT22;6689;53.400;12.486;2022-09-24T01:31:09;12.80;99.90
13245;DHT22;6689;53.400;12.486;2022-09-24T01:33:41;12.80;99.90
13245;DHT22;6689;53.400;12.486;2022-09-24T01:36:09;12.80;99.90
13245;DHT22;6689;53.400;12.486;2022-09-24T01:38:39;12.70;99.90
13245;DHT22;6689;53.400;12.486;2022-09-24T01:41:10;12.70;99.90
13245;DHT22;6689;53.400;12.486;2022-09-24T01:43:39;12.70;99.90
13245;DHT22;6689;53.400;12.486;2022-09-24T01:46:07;12.70;99.90
13245;DHT22;6689;53.400;12.486;2022-09-24T01:48:38;12.70;99.90
13245;DHT22;6689;53.400;12.486;2022-09-24T01:51:11;12.70;99.90
13245;DHT22;6689;53.400;12.486;2022-09-24T01:53:42;12.70;99.90
13245;DHT22;6689;53.400;12.486;2022-09-24T01:56:15;12.70;99.90
13245;DHT22;6689;53.400;12.486;2022-09-24T01:58:48;12.70;99.90
13245;DHT22;6689;53.400;12.486;2022-09-24T02:01:22;12.70;99.90
13245;DHT22;6689;53.400;12.486;2022-09-24T02:03:55;12.70;99.90
13245;DHT22;6689;53.400;12.486;2022-09-24T02:06:28;12.60;99.90
13245;DHT22;6689;53.400;12.486;2022-09-24T02:08:57;12.60;99.90
13245;DHT22;6689;53.400;12.486;2022-09-24T02:11:25;12.60;99.90
13245;DHT22;6689;53.400;12.486;2022-09-24T02:13:56;12.60;99.90
13245;DHT22;6689;53.400;12.486;2022-09-24T02:16:30;12.60;99.90
13245;DHT22;6689;53.400;12.486;2022-09-24T02:19:02;12.60;99.90
13245;DHT22;6689;53.400;12.486;2022-09-24T02:21:32;12.60;99.90
13245;DHT22;6689;53.400;12.486;2022-09-24T02:24:04;12.60;99.90
13245;DHT22;6689;53.400;12.486;2022-09-24T02:26:34;12.60;99.90
13245;DHT22;6689;53.400;12.486;2022-09-24T02:29:01;12.60;99.90
13245;DHT22;6689;53.400;12.486;2022-09-24T02:31:34;12.60;99.90
13245;DHT22;6689;53.400;12.486;2022-09-24T02:34:05;12.50;99.90
13245;DHT22;6689;53.400;12.486;2022-09-24T02:36:52;12.50;99.90
13245;DHT22;6689;53.400;12.486;2022-09-24T02:39:21;12.50;99.90
13245;DHT22;6689;53.400;12.486;2022-09-24T02:41:49;12.50;99.90
13245;DHT22;6689;53.400;12.486;2022-09-24T02:44:18;12.50;99.90
13245;DHT22;6689;53.400;12.486;2022-09-24T02:46:47;12.50;99.90
13245;DHT22;6689;53.400;12.486;2022-09-24T02:49:18;12.50;99.90
13245;DHT22;6689;53.400;12.486;2022-09-24T02:51:45;12.50;99.90
13245;DHT22;6689;53.400;12.486;2022-09-24T02:54:12;12.50;99.90
13245;DHT22;6689;53.400;12.486;2022-09-24T02:56:40;12.50;99.90
13245;DHT22;6689;53.400;12.486;2022-09-24T02:59:07;12.50;99.90
13245;DHT22;6689;53.400;12.486;2022-09-24T03:01:35;12.50;99.90
13245;DHT22;6689;53.400;12.486;2022-09-24T03:04:04;12.50;99.90
13245;DHT22;6689;53.400;12.486;2022-09-24T03:06:32;12.50;99.90
13245;DHT22;6689;53.400;12.486;2022-09-24T03:09:00;12.50;99.90
13245;DHT22;6689;53.400;12.486;2022-09-24T03:11:29;12.50;99.90
13245;DHT22;6689;53.400;12.486;2022-09-24T03:13:58;12.40;99.90
13245;DHT22;6689;53.400;12.486;2022-09-24T03:16:26;12.40;99.90
13245;DHT22;6689;53.400;12.486;2022-09-24T03:18:53;12.40;99.90
13245;DHT22;6689;53.400;12.486;2022-09-24T03:21:22;12.40;99.90
13245;DHT22;6689;53.400;12.486;2022-09-24T03:23:50;12.40;99.90
13245;DHT22;6689;53.400;12.486;2022-09-24T03:26:17;12.40;99.90
13245;DHT22;6689;53.400;12.486;2022-09-24T03:28:45;12.40;99.90
13245;DHT22;6689;53.400;12.486;2022-09-24T03:31:12;12.40;99.90
13245;DHT22;6689;53.400;12.486;2022-09-24T03:33:41;12.40;99.90
13245;DHT22;6689;53.400;12.486;2022-09-24T03:36:10;12.40;99.90
13245;DHT22;6689;53.400;12.486;2022-09-24T03:38:41;12.40;99.90
13245;DHT22;6689;53.400;12.486;2022-09-24T03:41:10;12.40;99.90
13245;DHT22;6689;53.400;12.486;2022-09-24T03:43:37;12.40;99.90
13245;DHT22;6689;53.400;12.486;2022-09-24T03:46:05;12.40;99.90
13245;DHT22;6689;53.400;12.486;2022-09-24T03:48:33;12.40;99.90
13245;DHT22;6689;53.400;12.486;2022-09-24T03:51:03;12.50;99.90
13245;DHT22;6689;53.400;12.486;2022-09-24T03:53:32;12.40;99.90
13245;DHT22;6689;53.400;12.486;2022-09-24T03:56:03;12.50;99.90
13245;DHT22;6689;53.400;12.486;2022-09-24T03:58:32;12.50;99.90
13245;DHT22;6689;53.400;12.486;2022-09-24T04:01:00;12.40;99.90
13245;DHT22;6689;53.400;12.486;2022-09-24T04:03:27;12.40;99.90
13245;DHT22;6689;53.400;12.486;2022-09-24T04:05:57;12.40;99.90
13245;DHT22;6689;53.400;12.486;2022-09-24T04:08:24;12.30;99.90
13245;DHT22;6689;53.400;12.486;2022-09-24T04:10:53;12.30;99.90
13245;DHT22;6689;53.400;12.486;2022-09-24T04:13:22;12.30;99.90
13245;DHT22;6689;53.400;12.486;2022-09-24T04:15:50;12.30;99.90
13245;DHT22;6689;53.400;12.486;2022-09-24T04:18:18;12.30;99.90
13245;DHT22;6689;53.400;12.486;2022-09-24T04:20:45;12.20;99.90
13245;DHT22;6689;53.400;12.486;2022-09-24T04:23:12;12.20;99.90
13245;DHT22;6689;53.400;12.486;2022-09-24T04:25:40;12.20;99.90
13245;DHT22;6689;53.400;12.486;2022-09-24T04:28:08;12.20;99.90
13245;DHT22;6689;53.400;12.486;2022-09-24T04:30:38;12.20;99.90
13245;DHT22;6689;53.400;12.486;2022-09-24T04:33:10;12.20;99.90
13245;DHT22;6689;53.400;12.486;2022-09-24T04:35:37;12.20;99.90
13245;DHT22;6689;53.400;12.486;2022-09-24T04:38:04;12.20;99.90
13245;DHT22;6689;53.400;12.486;2022-09-24T04:40:31;12.20;99.90
13245;DHT22;6689;53.400;12.486;2022-09-24T04:42:58;12.20;99.90
13245;DHT22;6689;53.400;12.486;2022-09-24T04:45:26;12.20;99.90
13245;DHT22;6689;53.400;12.486;2022-09-24T04:47:54;12.20;99.90
13245;DHT22;6689;53.400;12.486;2022-09-24T04:50:22;12.20;99.90
13245;DHT22;6689;53.400;12.486;2022-09-24T04:52:52;12.20;99.90
13245;DHT22;6689;53.400;12.486;2022-09-24T04:55:19;12.20;99.90
13245;DHT22;6689;53.400;12.486;2022-09-24T04:57:48;12.10;99.90
13245;DHT22;6689;53.400;12.486;2022-09-24T05:00:19;12.10;99.90
13245;DHT22;6689;53.400;12.486;2022-09-24T05:02:56;12.10;99.90
13245;DHT22;6689;53.400;12.486;2022-09-24T05:05:23;12.10;99.90
13245;DHT22;6689;53.400;12.486;2022-09-24T05:07:51;12.10;99.90
13245;DHT22;6689;53.400;12.486;2022-09-24T05:10:21;12.10;99.90
13245;DHT22;6689;53.400;12.486;2022-09-24T05:12:49;12.10;99.90
13245;DHT22;6689;53.400;12.486;2022-09-24T05:15:20;12.10;99.90
13245;DHT22;6689;53.400;12.486;2022-09-24T05:17:48;12.20;99.90
13245;DHT22;6689;53.400;12.486;2022-09-24T05:20:18;12.20;99.90
13245;DHT22;6689;53.400;12.486;2022-09-24T05:22:48;12.20;99.90
13245;DHT22;6689;53.400;12.486;2022-09-24T05:25:20;12.20;99.90
13245;DHT22;6689;53.400;12.486;2022-09-24T05:27:49;12.20;99.90
13245;DHT22;6689;53.400;12.486;2022-09-24T05:30:19;12.20;99.90
13245;DHT22;6689;53.400;12.486;2022-09-24T05:32:48;12.30;99.90
13245;DHT22;6689;53.400;12.486;2022-09-24T05:35:18;12.30;99.90
13245;DHT22;6689;53.400;12.486;2022-09-24T05:37:46;12.30;99.90
13245;DHT22;6689;53.400;12.486;2022-09-24T05:40:14;12.30;99.90
13245;DHT22;6689;53.400;12.486;2022-09-24T05:43:02;12.30;99.90
13245;DHT22;6689;53.400;12.486;2022-09-24T05:45:29;12.40;99.90
13245;DHT22;6689;53.400;12.486;2022-09-24T05:47:59;12.30;99.90
13245;DHT22;6689;53.400;12.486;2022-09-24T05:50:29;12.40;99.90
13245;DHT22;6689;53.400;12.486;2022-09-24T05:52:59;12.40;99.90
13245;DHT22;6689;53.400;12.486;2022-09-24T05:55:28;12.50;99.90
13245;DHT22;6689;53.400;12.486;2022-09-24T05:57:55;12.50;99.90
13245;DHT22;6689;53.400;12.486;2022-09-24T06:00:23;12.50;99.90
13245;DHT22;6689;53.400;12.486;2022-09-24T06:02:52;12.50;99.90
13245;DHT22;6689;53.400;12.486;2022-09-24T06:05:19;12.50;99.90
13245;DHT22;6689;53.400;12.486;2022-09-24T06:07:50;12.60;99.90
13245;DHT22;6689;53.400;12.486;2022-09-24T06:10:19;12.60;99.90
13245;DHT22;6689;53.400;12.486;2022-09-24T06:12:48;12.70;99.90
13245;DHT22;6689;53.400;12.486;2022-09-24T06:15:20;12.70;99.90
13245;DHT22;6689;53.400;12.486;2022-09-24T06:17:48;12.70;99.90
13245;DHT22;6689;53.400;12.486;2022-09-24T06:20:18;12.70;1.40
13245;DHT22;6689;53.400;12.486;2022-09-24T06:22:48;12.80;99.90
13245;DHT22;6689;53.400;12.486;2022-09-24T06:25:16;12.80;99.90
13245;DHT22;6689;53.400;12.486;2022-09-24T06:27:43;12.90;99.90
13245;DHT22;6689;53.400;12.486;2022-09-24T06:30:11;12.90;99.90
13245;DHT22;6689;53.400;12.486;2022-09-24T06:32:39;13.00;99.90
13245;DHT22;6689;53.400;12.486;2022-09-24T06:35:09;13.00;99.90
13245;DHT22;6689;53.400;12.486;2022-09-24T06:37:36;13.10;99.90
13245;DHT22;6689;53.400;12.486;2022-09-24T06:40:07;13.00;99.90
13245;DHT22;6689;53.400;12.486;2022-09-24T06:42:34;13.10;99.90
13245;DHT22;6689;53.400;12.486;2022-09-24T06:45:03;13.10;99.90
13245;DHT22;6689;53.400;12.486;2022-09-24T06:47:30;13.20;99.90
13245;DHT22;6689;53.400;12.486;2022-09-24T06:49:59;13.20;99.90
13245;DHT22;6689;53.400;12.486;2022-09-24T06:52:28;13.20;1.00
13245;DHT22;6689;53.400;12.486;2022-09-24T06:54:55;13.30;99.90
13245;DHT22;6689;53.400;12.486;2022-09-24T06:57:24;13.40;99.90
13245;DHT22;6689;53.400;12.486;2022-09-24T06:59:52;13.40;1.00
13245;DHT22;6689;53.400;12.486;2022-09-24T07:02:19;13.40;1.00
13245;DHT22;6689;53.400;12.486;2022-09-24T07:04:47;13.40;1.00
13245;DHT22;6689;53.400;12.486;2022-09-24T07:07:14;13.50;1.00
13245;DHT22;6689;53.400;12.486;2022-09-24T07:09:58;13.50;1.00
13245;DHT22;6689;53.400;12.486;2022-09-24T07:12:30;13.60;1.00
13245;DHT22;6689;53.400;12.486;2022-09-24T07:14:59;13.60;1.00
13245;DHT22;6689;53.400;12.486;2022-09-24T07:17:28;13.50;1.00
13245;DHT22;6689;53.400;12.486;2022-09-24T07:19:56;13.70;1.00
13245;DHT22;6689;53.400;12.486;2022-09-24T07:22:24;13.70;1.00
13245;DHT22;6689;53.400;12.486;2022-09-24T07:24:51;13.70;1.00
13245;DHT22;6689;53.400;12.486;2022-09-24T07:27:18;13.80;1.00
13245;DHT22;6689;53.400;12.486;2022-09-24T07:29:47;13.80;1.00
13245;DHT22;6689;53.400;12.486;2022-09-24T07:32:15;13.80;1.00
13245;DHT22;6689;53.400;12.486;2022-09-24T07:34:43;13.80;1.00
13245;DHT22;6689;53.400;12.486;2022-09-24T07:37:11;13.80;1.00
13245;DHT22;6689;53.400;12.486;2022-09-24T07:39:40;13.90;1.00
13245;DHT22;6689;53.400;12.486;2022-09-24T07:42:08;13.90;1.00
13245;DHT22;6689;53.400;12.486;2022-09-24T07:44:35;13.90;1.00
13245;DHT22;6689;53.400;12.486;2022-09-24T07:47:05;13.90;1.00
13245;DHT22;6689;53.400;12.486;2022-09-24T07:49:32;14.00;1.00
13245;DHT22;6689;53.400;12.486;2022-09-24T07:52:00;14.00;1.00
13245;DHT22;6689;53.400;12.486;2022-09-24T07:54:28;14.00;1.00
13245;DHT22;6689;53.400;12.486;2022-09-24T07:56:56;14.20;1.00
13245;DHT22;6689;53.400;12.486;2022-09-24T07:59:25;14.00;1.00
13245;DHT22;6689;53.400;12.486;2022-09-24T08:01:53;14.10;1.00
13245;DHT22;6689;53.400;12.486;2022-09-24T08:04:22;14.20;1.00
13245;DHT22;6689;53.400;12.486;2022-09-24T08:06:53;14.30;1.00
13245;DHT22;6689;53.400;12.486;2022-09-24T08:09:20;14.30;1.00
13245;DHT22;6689;53.400;12.486;2022-09-24T08:11:50;14.40;1.00
13245;DHT22;6689;53.400;12.486;2022-09-24T08:14:17;14.40;1.00
13245;DHT22;6689;53.400;12.486;2022-09-24T08:16:45;14.50;1.00
13245;DHT22;6689;53.400;12.486;2022-09-24T08:19:13;14.60;1.00
13245;DHT22;6689;53.400;12.486;2022-09-24T08:21:46;14.70;1.00
13245;DHT22;6689;53.400;12.486;2022-09-24T08:24:15;14.80;1.00
13245;DHT22;6689;53.400;12.486;2022-09-24T08:26:42;14.90;1.00
13245;DHT22;6689;53.400;12.486;2022-09-24T08:29:10;15.00;1.00
13245;DHT22;6689;53.400;12.486;2022-09-24T08:31:40;15.00;1.00
13245;DHT22;6689;53.400;12.486;2022-09-24T08:34:08;15.10;1.00
13245;DHT22;6689;53.400;12.486;2022-09-24T08:36:36;15.10;1.00
13245;DHT22;6689;53.400;12.486;2022-09-24T08:39:05;15.10;1.00
13245;DHT22;6689;53.400;12.486;2022-09-24T08:41:48;15.30;1.00
13245;DHT22;6689;53.400;12.486;2022-09-24T08:44:20;15.40;1.00
13245;DHT22;6689;53.400;12.486;2022-09-24T08:47:07;15.50;99.90
13245;DHT22;6689;53.400;12.486;2022-09-24T08:49:57;15.60;99.90
13245;DHT22;6689;53.400;12.486;2022-09-24T08:52:49;15.60;99.90
13245;DHT22;6689;53.400;12.486;2022-09-24T08:55:23;15.60;99.90
13245;DHT22;6689;53.400;12.486;2022-09-24T08:57:59;15.60;99.90
13245;DHT22;6689;53.400;12.486;2022-09-24T09:00:42;15.60;99.90
13245;DHT22;6689;53.400;12.486;2022-09-24T09:03:23;15.60;99.90
13245;DHT22;6689;53.400;12.486;2022-09-24T09:06:00;15.60;99.90
13245;DHT22;6689;53.400;12.486;2022-09-24T09:08:36;15.50;99.90
13245;DHT22;6689;53.400;12.486;2022-09-24T09:11:10;15.40;99.90
13245;DHT22;6689;53.400;12.486;2022-09-24T09:13:46;15.40;99.90
13245;DHT22;6689;53.400;12.486;2022-09-24T09:16:22;15.50;99.90
13245;DHT22;6689;53.400;12.486;2022-09-24T09:18:50;15.40;99.90
13245;DHT22;6689;53.400;12.486;2022-09-24T09:21:26;15.40;99.90
13245;DHT22;6689;53.400;12.486;2022-09-24T09:23:55;15.40;99.90
13245;DHT22;6689;53.400;12.486;2022-09-24T09:26:25;15.40;99.90
13245;DHT22;6689;53.400;12.486;2022-09-24T09:28:56;15.50;99.90
13245;DHT22;6689;53.400;12.486;2022-09-24T09:31:33;15.50;99.90
13245;DHT22;6689;53.400;12.486;2022-09-24T09:34:15;15.60;99.90
13245;DHT22;6689;53.400;12.486;2022-09-24T09:36:55;15.60;99.90
13245;DHT22;6689;53.400;12.486;2022-09-24T09:39:41;15.60;99.90
13245;DHT22;6689;53.400;12.486;2022-09-24T09:42:28;15.70;99.90
13245;DHT22;6689;53.400;12.486;2022-09-24T09:45:00;15.70;99.90
13245;DHT22;6689;53.400;12.486;2022-09-24T09:47:37;15.80;99.90
13245;DHT22;6689;53.400;12.486;2022-09-24T09:50:12;15.80;99.90
13245;DHT22;6689;53.400;12.486;2022-09-24T09:52:41;15.80;99.90
13245;DHT22;6689;53.400;12.486;2022-09-24T09:55:23;15.80;99.90
13245;DHT22;6689;53.400;12.486;2022-09-24T09:57:53;15.90;99.90
13245;DHT22;6689;53.400;12.486;2022-09-24T10:00:31;15.90;99.90
13245;DHT22;6689;53.400;12.486;2022-09-24T10:03:00;15.90;99.90
13245;DHT22;6689;53.400;12.486;2022-09-24T10:05:28;15.90;99.90
13245;DHT22;6689;53.400;12.486;2022-09-24T10:07:57;16.00;99.90
13245;DHT22;6689;53.400;12.486;2022-09-24T10:10:28;16.00;99.90
13245;DHT22;6689;53.400;12.486;2022-09-24T10:13:07;16.00;99.90
13245;DHT22;6689;53.400;12.486;2022-09-24T10:15:46;16.10;99.90
13245;DHT22;6689;53.400;12.486;2022-09-24T10:18:28;16.20;99.90
13245;DHT22;6689;53.400;12.486;2022-09-24T10:21:00;16.20;99.90
13245;DHT22;6689;53.400;12.486;2022-09-24T10:23:33;16.30;99.90
13245;DHT22;6689;53.400;12.486;2022-09-24T10:26:03;16.30;99.90
13245;DHT22;6689;53.400;12.486;2022-09-24T10:28:36;16.40;99.90
13245;DHT22;6689;53.400;12.486;2022-09-24T10:31:25;16.50;99.90
13245;DHT22;6689;53.400;12.486;2022-09-24T10:33:55;16.50;99.90
13245;DHT22;6689;53.400;12.486;2022-09-24T10:36:25;16.60;99.90
13245;DHT22;6689;53.400;12.486;2022-09-24T10:39:01;16.70;99.90
13245;DHT22;6689;53.400;12.486;2022-09-24T10:41:30;16.70;99.90
13245;DHT22;6689;53.400;12.486;2022-09-24T10:44:02;16.70;99.90
13245;DHT22;6689;53.400;12.486;2022-09-24T10:46:42;16.80;99.90
13245;DHT22;6689;53.400;12.486;2022-09-24T10:49:24;16.80;99.90
13245;DHT22;6689;53.400;12.486;2022-09-24T10:52:03;16.90;99.90
13245;DHT22;6689;53.400;12.486;2022-09-24T10:54:48;16.90;99.90
13245;DHT22;6689;53.400;12.486;2022-09-24T10:57:29;17.00;99.90
13245;DHT22;6689;53.400;12.486;2022-09-24T11:00:07;17.10;99.90
13245;DHT22;6689;53.400;12.486;2022-09-24T11:03:21;17.10;99.90
13245;DHT22;6689;53.400;12.486;2022-09-24T11:05:52;17.20;86.80
13245;DHT22;6689;53.400;12.486;2022-09-24T11:08:46;17.20;94.00
13245;DHT22;6689;53.400;12.486;2022-09-24T11:11:31;17.20;9.80
13245;DHT22;6689;53.400;12.486;2022-09-24T11:14:12;17.30;76.20
13245;DHT22;6689;53.400;12.486;2022-09-24T11:17:00;17.30;78.70
13245;DHT22;6689;53.400;12.486;2022-09-24T11:19:49;17.30;56.80
13245;DHT22;6689;53.400;12.486;2022-09-24T11:22:30;17.40;63.40
13245;DHT22;6689;53.400;12.486;2022-09-24T11:25:16;17.40;56.50
13245;DHT22;6689;53.400;12.486;2022-09-24T11:28:01;17.40;41.30
13245;DHT22;6689;53.400;12.486;2022-09-24T11:30:31;17.50;1.00
13245;DHT22;6689;53.400;12.486;2022-09-24T11:33:17;17.50;5.40
13245;DHT22;6689;53.400;12.486;2022-09-24T11:36:19;17.50;4.70
13245;DHT22;6689;53.400;12.486;2022-09-24T11:39:00;17.50;19.80
13245;DHT22;6689;53.400;12.486;2022-09-24T11:41:38;17.60;24.90
13245;DHT22;6689;53.400;12.486;2022-09-24T11:44:23;17.50;36.60
13245;DHT22;6689;53.400;12.486;2022-09-24T11:47:02;17.50;29.70
13245;DHT22;6689;53.400;12.486;2022-09-24T11:49:47;17.50;1.00
13245;DHT22;6689;53.400;12.486;2022-09-24T11:52:29;17.40;1.00
13245;DHT22;6689;53.400;12.486;2022-09-24T11:55:02;17.40;1.00
13245;DHT22;6689;53.400;12.486;2022-09-24T11:57:33;17.30;1.00
13245;DHT22;6689;53.400;12.486;2022-09-24T12:00:05;17.30;1.00
13245;DHT22;6689;53.400;12.486;2022-09-24T12:02:39;17.30;1.00
13245;DHT22;6689;53.400;12.486;2022-09-24T12:05:19;17.30;1.00
13245;DHT22;6689;53.400;12.486;2022-09-24T12:07:52;17.30;6.00
13245;DHT22;6689;53.400;12.486;2022-09-24T12:10:27;17.30;77.00
13245;DHT22;6689;53.400;12.486;2022-09-24T12:13:01;17.30;34.60
13245;DHT22;6689;53.400;12.486;2022-09-24T12:15:40;17.30;48.30
13245;DHT22;6689;53.400;12.486;2022-09-24T12:18:14;17.30;38.30
13245;DHT22;6689;53.400;12.486;2022-09-24T12:20:49;17.40;39.30
13245;DHT22;6689;53.400;12.486;2022-09-24T12:23:22;17.20;41.30
13245;DHT22;6689;53.400;12.486;2022-09-24T12:25:52;17.20;26.00
13245;DHT22;6689;53.400;12.486;2022-09-24T12:28:23;17.20;35.20
13245;DHT22;6689;53.400;12.486;2022-09-24T12:31:14;17.20;40.10
13245;DHT22;6689;53.400;12.486;2022-09-24T12:34:06;17.20;99.90
13245;DHT22;6689;53.400;12.486;2022-09-24T12:36:49;17.20;69.60
13245;DHT22;6689;53.400;12.486;2022-09-24T12:39:23;17.10;73.30
13245;DHT22;6689;53.400;12.486;2022-09-24T12:41:58;17.10;34.40
13245;DHT22;6689;53.400;12.486;2022-09-24T12:44:40;17.00;99.90
13245;DHT22;6689;53.400;12.486;2022-09-24T12:47:29;17.00;99.90
13245;DHT22;6689;53.400;12.486;2022-09-24T12:50:04;16.90;99.90
13245;DHT22;6689;53.400;12.486;2022-09-24T12:52:38;16.90;96.50
13245;DHT22;6689;53.400;12.486;2022-09-24T12:55:18;16.80;75.50
13245;DHT22;6689;53.400;12.486;2022-09-24T12:57:50;16.80;82.80
13245;DHT22;6689;53.400;12.486;2022-09-24T13:00:35;16.80;81.30
13245;DHT22;6689;53.400;12.486;2022-09-24T13:05:50;16.80;55.90
13245;DHT22;6689;53.400;12.486;2022-09-24T13:08:27;16.80;50.50
13245;DHT22;6689;53.400;12.486;2022-09-24T13:11:03;16.80;49.30
13245;DHT22;6689;53.400;12.486;2022-09-24T13:13:35;16.70;44.60
13245;DHT22;6689;53.400;12.486;2022-09-24T13:16:15;16.80;40.50
13245;DHT22;6689;53.400;12.486;2022-09-24T13:18:51;16.90;25.70
13245;DHT22;6689;53.400;12.486;2022-09-24T13:21:22;16.90;32.50
13245;DHT22;6689;53.400;12.486;2022-09-24T13:23:52;16.90;35.50
13245;DHT22;6689;53.400;12.486;2022-09-24T13:26:31;16.90;44.70
13245;DHT22;6689;53.400;12.486;2022-09-24T13:29:00;16.90;39.30
13245;DHT22;6689;53.400;12.486;2022-09-24T13:31:41;16.90;47.60
13245;DHT22;6689;53.400;12.486;2022-09-24T13:34:17;16.90;60.10
13245;DHT22;6689;53.400;12.486;2022-09-24T13:36:51;16.90;48.10
13245;DHT22;6689;53.400;12.486;2022-09-24T13:39:30;16.90;42.30
13245;DHT22;6689;53.400;12.486;2022-09-24T13:42:05;16.90;38.40
13245;DHT22;6689;53.400;12.486;2022-09-24T13:44:34;16.90;43.30
13245;DHT22;6689;53.400;12.486;2022-09-24T13:49:50;16.80;53.40
13245;DHT22;6689;53.400;12.486;2022-09-24T13:52:30;16.80;53.80
13245;DHT22;6689;53.400;12.486;2022-09-24T13:55:06;16.80;61.00
13245;DHT22;6689;53.400;12.486;2022-09-24T13:57:42;16.70;32.00
13245;DHT22;6689;53.400;12.486;2022-09-24T14:00:16;16.70;37.70
13245;DHT22;6689;53.400;12.486;2022-09-24T14:02:59;16.60;49.20
13245;DHT22;6689;53.400;12.486;2022-09-24T14:05:28;16.60;99.90
13245;DHT22;6689;53.400;12.486;2022-09-24T14:08:00;16.60;99.90
13245;DHT22;6689;53.400;12.486;2022-09-24T14:10:31;16.50;79.40
13245;DHT22;6689;53.400;12.486;2022-09-24T14:13:13;16.60;99.90
13245;DHT22;6689;53.400;12.486;2022-09-24T14:15:54;16.70;99.90
13245;DHT22;6689;53.400;12.486;2022-09-24T14:18:23;16.70;99.90
13245;DHT22;6689;53.400;12.486;2022-09-24T14:20:54;16.70;99.90
13245;DHT22;6689;53.400;12.486;2022-09-24T14:23:27;16.70;99.90
13245;DHT22;6689;53.400;12.486;2022-09-24T14:26:00;16.70;99.90
13245;DHT22;6689;53.400;12.486;2022-09-24T14:28:28;16.60;99.90
13245;DHT22;6689;53.400;12.486;2022-09-24T14:30:58;16.60;99.90
13245;DHT22;6689;53.400;12.486;2022-09-24T14:33:29;16.60;99.90
13245;DHT22;6689;53.400;12.486;2022-09-24T14:35:58;16.50;99.90
13245;DHT22;6689;53.400;12.486;2022-09-24T14:38:29;16.50;99.90
13245;DHT22;6689;53.400;12.486;2022-09-24T14:41:04;16.50;99.90
13245;DHT22;6689;53.400;12.486;2022-09-24T14:43:37;16.40;99.90
13245;DHT22;6689;53.400;12.486;2022-09-24T14:46:14;16.30;99.90
13245;DHT22;6689;53.400;12.486;2022-09-24T14:48:44;16.40;99.90
13245;DHT22;6689;53.400;12.486;2022-09-24T14:51:23;16.30;99.90
13245;DHT22;6689;53.400;12.486;2022-09-24T14:53:59;16.30;99.90
13245;DHT22;6689;53.400;12.486;2022-09-24T14:56:30;16.30;99.90
13245;DHT22;6689;53.400;12.486;2022-09-24T14:59:00;16.30;99.90
13245;DHT22;6689;53.400;12.486;2022-09-24T15:01:33;16.30;99.90
13245;DHT22;6689;53.400;12.486;2022-09-24T15:04:16;16.20;99.90
13245;DHT22;6689;53.400;12.486;2022-09-24T15:06:46;16.20;99.90
13245;DHT22;6689;53.400;12.486;2022-09-24T15:09:21;16.20;99.90
13245;DHT22;6689;53.400;12.486;2022-09-24T15:11:53;16.20;99.90
13245;DHT22;6689;53.400;12.486;2022-09-24T15:14:30;16.20;99.90
13245;DHT22;6689;53.400;12.486;2022-09-24T15:17:09;16.20;99.90
13245;DHT22;6689;53.400;12.486;2022-09-24T15:19:39;16.20;99.90
13245;DHT22;6689;53.400;12.486;2022-09-24T15:22:10;16.20;99.90
13245;DHT22;6689;53.400;12.486;2022-09-24T15:24:37;16.20;99.90
13245;DHT22;6689;53.400;12.486;2022-09-24T15:27:14;16.10;99.90
13245;DHT22;6689;53.400;12.486;2022-09-24T15:29:41;16.10;99.90
13245;DHT22;6689;53.400;12.486;2022-09-24T15:32:14;16.00;99.90
13245;DHT22;6689;53.400;12.486;2022-09-24T15:34:41;16.00;99.90
13245;DHT22;6689;53.400;12.486;2022-09-24T15:37:13;16.00;99.90
13245;DHT22;6689;53.400;12.486;2022-09-24T15:39:41;16.00;99.90
13245;DHT22;6689;53.400;12.486;2022-09-24T15:42:16;16.00;99.90
13245;DHT22;6689;53.400;12.486;2022-09-24T15:44:45;16.00;99.90
13245;DHT22;6689;53.400;12.486;2022-09-24T15:47:13;16.00;99.90
13245;DHT22;6689;53.400;12.486;2022-09-24T15:49:43;15.90;99.90
13245;DHT22;6689;53.400;12.486;2022-09-24T15:52:14;15.90;99.90
13245;DHT22;6689;53.400;12.486;2022-09-24T15:54:41;15.90;99.90
13245;DHT22;6689;53.400;12.486;2022-09-24T16:00:18;15.90;99.90
13245;DHT22;6689;53.400;12.486;2022-09-24T16:02:49;15.80;99.90
13245;DHT22;6689;53.400;12.486;2022-09-24T16:05:17;15.80;99.90
13245;DHT22;6689;53.400;12.486;2022-09-24T16:07:44;15.80;99.90
13245;DHT22;6689;53.400;12.486;2022-09-24T16:10:12;15.80;99.90
13245;DHT22;6689;53.400;12.486;2022-09-24T16:12:41;15.80;99.90
13245;DHT22;6689;53.400;12.486;2022-09-24T16:15:11;15.70;99.90
13245;DHT22;6689;53.400;12.486;2022-09-24T16:17:40;15.60;99.90